createdAt,value
2019-05-18T00:00:40.284Z,12.83
2019-05-18T00:03:08.694Z,12.68
2019-05-18T00:05:37.106Z,12.75
2019-05-18T00:08:05.525Z,12.86
2019-05-18T00:10:33.921Z,12.81
2019-05-18T00:13:02.361Z,12.78
2019-05-18T00:15:30.783Z,12.76
2019-05-18T00:17:59.192Z,12.68
2019-05-18T00:20:27.758Z,12.61
2019-05-18T00:22:56.193Z,12.63
2019-05-18T00:25:24.597Z,12.59
2019-05-18T00:27:52.989Z,12.43
2019-05-18T00:30:21.564Z,12.31
2019-05-18T00:32:49.947Z,12.29
2019-05-18T00:35:18.353Z,12.30
2019-05-18T00:37:46.769Z,12.29
2019-05-18T00:40:15.307Z,12.17
2019-05-18T00:42:43.707Z,12.09
2019-05-18T00:45:12.431Z,12.10
2019-05-18T00:47:42.220Z,12.03
2019-05-18T00:50:11.337Z,11.99
2019-05-18T00:52:39.834Z,11.96
2019-05-18T00:55:09.273Z,12.00
2019-05-18T00:57:37.677Z,12.01
2019-05-18T01:00:08.513Z,12.00
2019-05-18T01:02:36.905Z,11.93
2019-05-18T01:05:06.043Z,11.83
2019-05-18T01:07:34.611Z,11.84
2019-05-18T01:10:03.255Z,11.78
2019-05-18T01:12:31.657Z,11.69
2019-05-18T01:15:00.215Z,11.64
2019-05-18T01:17:28.611Z,11.72
2019-05-18T01:19:57.044Z,11.69
2019-05-18T01:22:25.577Z,11.73
2019-05-18T01:24:53.975Z,11.82
2019-05-18T01:27:22.375Z,11.72
2019-05-18T01:29:50.811Z,11.63
2019-05-18T01:32:19.205Z,11.62
2019-05-18T01:34:47.745Z,11.64
2019-05-18T01:37:16.262Z,11.60
2019-05-18T01:39:44.705Z,11.58
2019-05-18T01:42:13.106Z,11.55
2019-05-18T01:44:41.608Z,11.46
2019-05-18T01:47:10.018Z,11.40
2019-05-18T01:49:38.431Z,11.34
2019-05-18T01:52:06.937Z,11.33
2019-05-18T01:54:35.331Z,11.40
2019-05-18T01:57:03.736Z,11.41
2019-05-18T01:59:32.279Z,11.38
2019-05-18T02:02:00.678Z,11.28
2019-05-18T02:04:29.069Z,11.17
2019-05-18T02:06:57.649Z,11.25
2019-05-18T02:09:26.050Z,11.39
2019-05-18T02:11:54.449Z,11.37
2019-05-18T02:14:22.880Z,11.36
2019-05-18T02:16:51.272Z,11.32
2019-05-18T02:19:19.676Z,11.30
2019-05-18T02:21:48.094Z,11.23
2019-05-18T02:24:16.492Z,11.23
2019-05-18T02:26:44.890Z,11.28
2019-05-18T02:29:13.740Z,11.28
2019-05-18T02:31:42.139Z,11.32
2019-05-18T02:34:10.539Z,11.32
2019-05-18T02:36:39.087Z,11.31
2019-05-18T02:39:08.723Z,11.33
2019-05-18T02:41:37.558Z,11.33
2019-05-18T02:44:06.418Z,11.32
2019-05-18T02:46:34.956Z,11.31
2019-05-18T02:49:03.366Z,11.23
2019-05-18T02:51:31.913Z,11.21
2019-05-18T02:54:00.389Z,11.18
2019-05-18T02:56:28.864Z,11.14
2019-05-18T02:58:57.289Z,11.13
2019-05-18T03:01:25.761Z,11.15
2019-05-18T03:03:54.220Z,11.04
2019-05-18T03:06:22.950Z,10.93
2019-05-18T03:08:51.608Z,10.82
2019-05-18T03:11:20.057Z,10.71
2019-05-18T03:13:48.747Z,10.64
2019-05-18T03:16:17.211Z,10.56
2019-05-18T03:18:45.633Z,10.59
2019-05-18T03:21:14.054Z,10.55
2019-05-18T03:23:42.450Z,10.53
2019-05-18T03:26:10.856Z,10.52
2019-05-18T03:28:39.264Z,10.57
2019-05-18T03:31:07.856Z,10.59
2019-05-18T03:33:36.236Z,10.60
2019-05-18T03:36:04.743Z,10.61
2019-05-18T03:38:33.128Z,10.62
2019-05-18T03:41:01.521Z,10.56
2019-05-18T03:43:30.118Z,10.53
2019-05-18T03:45:58.532Z,10.52
2019-05-18T03:48:26.941Z,10.58
2019-05-18T03:50:55.459Z,10.54
2019-05-18T03:53:23.853Z,10.39
2019-05-18T03:55:52.266Z,10.33
2019-05-18T03:58:20.789Z,10.36
2019-05-18T04:00:49.218Z,10.41
2019-05-18T04:03:17.592Z,10.40
2019-05-18T04:05:46.134Z,10.41
2019-05-18T04:08:14.535Z,10.46
2019-05-18T04:10:42.933Z,10.52
2019-05-18T04:13:11.493Z,10.54
2019-05-18T04:15:39.875Z,10.57
2019-05-18T04:18:08.283Z,10.48
2019-05-18T04:20:36.916Z,10.41
2019-05-18T04:23:05.313Z,10.46
2019-05-18T04:25:33.718Z,10.52
2019-05-18T04:28:02.128Z,10.52
2019-05-18T04:30:31.178Z,10.54
2019-05-18T04:32:59.930Z,10.50
2019-05-18T04:35:28.455Z,10.50
2019-05-18T04:37:56.850Z,10.57
2019-05-18T04:40:25.248Z,10.60
2019-05-18T04:42:53.863Z,10.58
2019-05-18T04:45:22.254Z,10.56
2019-05-18T04:47:50.656Z,10.57
2019-05-18T04:50:19.161Z,10.58
2019-05-18T04:52:47.573Z,10.67
2019-05-18T04:55:16.118Z,10.78
2019-05-18T04:57:44.556Z,10.87
2019-05-18T05:00:17.013Z,10.86
2019-05-18T05:02:45.434Z,10.88
2019-05-18T05:05:13.931Z,10.95
2019-05-18T05:07:42.359Z,11.06
2019-05-18T05:10:11.001Z,11.12
2019-05-18T05:12:39.523Z,11.16
2019-05-18T05:15:08.356Z,11.16
2019-05-18T05:17:36.820Z,11.08
2019-05-18T05:20:19.411Z,11.07
2019-05-18T05:22:38.758Z,11.02
2019-05-18T05:25:07.592Z,10.94
2019-05-18T05:27:36.140Z,10.94
2019-05-18T05:30:06.881Z,11.03
2019-05-18T05:32:35.277Z,11.12
2019-05-18T05:35:04.747Z,11.15
2019-05-18T05:37:33.184Z,11.16
2019-05-18T05:40:01.603Z,11.30
2019-05-18T05:42:30.004Z,11.35
2019-05-18T05:44:58.408Z,11.37
2019-05-18T05:47:26.827Z,11.34
2019-05-18T05:49:55.542Z,11.32
2019-05-18T05:52:23.944Z,11.37
2019-05-18T05:54:52.409Z,11.43
2019-05-18T05:57:20.960Z,11.48
2019-05-18T05:59:49.359Z,11.51
2019-05-18T06:02:17.756Z,11.59
2019-05-18T06:04:46.327Z,11.70
2019-05-18T06:07:14.798Z,11.79
2019-05-18T06:09:43.193Z,11.79
2019-05-18T06:12:11.876Z,11.82
2019-05-18T06:14:40.284Z,11.87
2019-05-18T06:17:08.695Z,11.89
2019-05-18T06:19:37.150Z,11.96
2019-05-18T06:22:05.546Z,12.01
2019-05-18T06:24:33.949Z,12.07
2019-05-18T06:27:02.475Z,12.13
2019-05-18T06:29:30.872Z,12.19
2019-05-18T06:31:59.317Z,12.26
2019-05-18T06:34:27.786Z,12.31
2019-05-18T06:36:56.190Z,12.34
2019-05-18T06:39:24.593Z,12.41
2019-05-18T06:41:53.053Z,12.48
2019-05-18T06:44:21.458Z,12.57
2019-05-18T06:46:49.855Z,12.64
2019-05-18T06:49:18.281Z,12.76
2019-05-18T06:51:46.680Z,12.89
2019-05-18T06:54:15.084Z,13.00
2019-05-18T06:56:43.833Z,13.13
2019-05-18T06:59:12.785Z,13.20
2019-05-18T07:01:43.226Z,13.29
2019-05-18T07:04:11.916Z,13.38
2019-05-18T07:06:40.491Z,13.48
2019-05-18T07:09:14.085Z,13.56
2019-05-18T07:11:39.811Z,13.67
2019-05-18T07:14:08.292Z,13.76
2019-05-18T07:16:36.684Z,13.84
2019-05-18T07:19:05.105Z,13.93
2019-05-18T07:21:33.504Z,14.01
2019-05-18T07:24:01.907Z,14.09
2019-05-18T07:26:30.324Z,14.16
2019-05-18T07:28:58.728Z,14.24
2019-05-18T07:31:27.116Z,14.30
2019-05-18T07:33:57.188Z,14.37
2019-05-18T07:36:25.586Z,14.45
2019-05-18T07:38:53.992Z,14.53
2019-05-18T07:41:22.612Z,14.58
2019-05-18T07:43:51.013Z,14.64
2019-05-18T07:46:19.415Z,14.74
2019-05-18T07:48:47.950Z,14.88
2019-05-18T07:51:16.353Z,15.00
2019-05-18T07:53:44.759Z,15.11
2019-05-18T07:56:13.193Z,15.19
2019-05-18T07:58:41.592Z,15.30
2019-05-18T08:01:10.057Z,15.41
2019-05-18T08:03:38.476Z,15.49
2019-05-18T08:06:06.869Z,15.61
2019-05-18T08:08:35.262Z,15.72
2019-05-18T08:11:03.870Z,15.87
2019-05-18T08:13:32.262Z,16.02
2019-05-18T08:16:00.671Z,16.13
2019-05-18T08:18:29.208Z,16.23
2019-05-18T08:20:57.614Z,16.31
2019-05-18T08:23:26.021Z,16.39
2019-05-18T08:25:54.448Z,16.47
2019-05-18T08:28:22.852Z,16.59
2019-05-18T08:30:51.274Z,16.70
2019-05-18T08:33:19.772Z,16.77
2019-05-18T08:35:48.174Z,16.80
2019-05-18T08:38:16.653Z,16.86
2019-05-18T08:40:45.225Z,16.92
2019-05-18T08:43:13.629Z,16.97
2019-05-18T08:45:42.038Z,17.02
2019-05-18T08:48:10.527Z,17.08
2019-05-18T08:50:38.939Z,17.17
2019-05-18T08:53:07.328Z,17.27
2019-05-18T08:55:35.753Z,17.37
2019-05-18T08:58:04.167Z,17.49
2019-05-18T09:00:32.574Z,17.60
2019-05-18T09:03:01.143Z,17.74
2019-05-18T09:05:29.532Z,17.81
2019-05-18T09:07:58.196Z,17.92
2019-05-18T09:10:26.647Z,18.01
2019-05-18T09:12:55.046Z,18.12
2019-05-18T09:15:23.585Z,18.20
2019-05-18T09:17:52.131Z,18.27
2019-05-18T09:20:21.174Z,18.29
2019-05-18T09:22:50.609Z,18.27
2019-05-18T09:25:19.133Z,18.27
2019-05-18T09:27:47.534Z,18.34
2019-05-18T09:30:16.466Z,18.41
2019-05-18T09:32:45.062Z,18.55
2019-05-18T09:35:14.006Z,18.72
2019-05-18T09:37:42.403Z,18.84
2019-05-18T09:40:11.328Z,18.98
2019-05-18T09:42:39.727Z,19.07
2019-05-18T09:45:10.070Z,19.14
2019-05-18T09:47:38.713Z,19.17
2019-05-18T09:50:07.548Z,19.24
2019-05-18T09:52:44.634Z,19.34
2019-05-18T09:55:07.984Z,19.46
2019-05-18T09:57:36.449Z,19.59
2019-05-18T10:00:10.556Z,19.72
2019-05-18T10:02:39.837Z,19.84
2019-05-18T10:05:09.372Z,19.92
2019-05-18T10:07:37.842Z,20.03
2019-05-18T10:10:07.798Z,20.23
2019-05-18T10:12:36.210Z,20.36
2019-05-18T10:15:07.053Z,20.48
2019-05-18T10:17:35.646Z,20.60
2019-05-18T10:20:07.264Z,20.72
2019-05-18T10:22:35.698Z,20.78
2019-05-18T10:25:08.125Z,20.81
2019-05-18T10:27:36.538Z,20.94
2019-05-18T10:30:08.556Z,21.06
2019-05-18T10:32:36.987Z,21.19
2019-05-18T10:35:07.891Z,21.27
2019-05-18T10:37:36.297Z,21.37
2019-05-18T10:40:07.124Z,21.43
2019-05-18T10:42:35.536Z,21.51
2019-05-18T10:45:05.108Z,21.64
2019-05-18T10:47:33.535Z,21.82
2019-05-18T10:50:01.933Z,21.96
2019-05-18T10:52:30.331Z,22.05
2019-05-18T10:54:58.924Z,22.19
2019-05-18T10:57:27.337Z,22.30
2019-05-18T10:59:58.384Z,22.41
2019-05-18T11:02:26.937Z,22.53
2019-05-18T11:04:55.958Z,22.56
2019-05-18T11:07:24.362Z,22.60
2019-05-18T11:09:52.890Z,22.65
2019-05-18T11:12:21.330Z,22.77
2019-05-18T11:14:49.708Z,22.94
2019-05-18T11:17:18.329Z,23.07
2019-05-18T11:19:46.721Z,23.08
2019-05-18T11:22:15.121Z,23.08
2019-05-18T11:24:43.633Z,23.13
2019-05-18T11:27:12.027Z,23.22
2019-05-18T11:29:40.500Z,23.34
2019-05-18T11:32:09.007Z,23.50
2019-05-18T11:34:37.409Z,23.58
2019-05-18T11:37:05.878Z,23.65
2019-05-18T11:39:34.296Z,23.62
2019-05-18T11:42:02.696Z,23.55
2019-05-18T11:44:31.095Z,23.49
2019-05-18T11:46:59.525Z,23.43
2019-05-18T11:49:29.164Z,23.45
2019-05-18T11:51:57.869Z,23.55
2019-05-18T11:54:26.416Z,23.67
2019-05-18T11:56:54.834Z,23.86
2019-05-18T11:59:23.283Z,23.96
2019-05-18T12:01:51.701Z,24.10
2019-05-18T12:04:20.103Z,24.16
2019-05-18T12:06:48.517Z,24.22
2019-05-18T12:09:17.037Z,24.29
2019-05-18T12:11:45.504Z,24.37
2019-05-18T12:14:13.922Z,24.50
2019-05-18T12:16:42.342Z,24.58
2019-05-18T12:19:10.749Z,24.63
2019-05-18T12:21:39.151Z,24.71
2019-05-18T12:24:15.482Z,24.73
2019-05-18T12:26:37.865Z,24.74
2019-05-18T12:29:06.263Z,24.68
2019-05-18T12:31:34.793Z,24.60
2019-05-18T12:34:03.211Z,24.58
2019-05-18T12:36:31.667Z,24.54
2019-05-18T12:39:00.089Z,24.56
2019-05-18T12:41:31.182Z,24.50
2019-05-18T12:43:59.853Z,24.42
2019-05-18T12:46:28.394Z,24.37
2019-05-18T12:48:56.875Z,24.35
2019-05-18T12:51:25.348Z,24.37
2019-05-18T12:53:54.561Z,24.45
2019-05-18T12:56:22.975Z,24.46
2019-05-18T12:58:51.352Z,24.48
2019-05-18T13:01:19.785Z,24.42
2019-05-18T13:03:48.180Z,24.36
2019-05-18T13:06:16.574Z,24.44
2019-05-18T13:08:45.008Z,24.53
2019-05-18T13:11:13.409Z,24.74
2019-05-18T13:13:41.797Z,24.99
2019-05-18T13:16:10.421Z,25.19
2019-05-18T13:18:38.818Z,25.18
2019-05-18T13:21:07.238Z,25.11
2019-05-18T13:23:35.762Z,25.08
2019-05-18T13:26:04.233Z,25.16
2019-05-18T13:28:32.628Z,25.25
2019-05-18T13:31:04.072Z,25.32
2019-05-18T13:33:32.537Z,25.41
2019-05-18T13:36:00.935Z,25.43
2019-05-18T13:38:29.381Z,25.52
2019-05-18T13:40:57.778Z,25.49
2019-05-18T13:43:26.182Z,25.50
2019-05-18T13:45:54.761Z,25.53
2019-05-18T13:48:23.151Z,25.50
2019-05-18T13:50:51.560Z,25.47
2019-05-18T13:53:20.103Z,25.42
2019-05-18T13:55:48.500Z,25.41
2019-05-18T13:58:16.902Z,25.34
2019-05-18T14:00:45.441Z,25.30
2019-05-18T14:03:13.833Z,25.31
2019-05-18T14:05:42.226Z,25.33
2019-05-18T14:08:15.525Z,25.34
2019-05-18T14:10:40.805Z,25.37
2019-05-18T14:13:09.192Z,25.48
2019-05-18T14:15:37.681Z,25.54
2019-05-18T14:18:06.151Z,25.54
2019-05-18T14:20:34.549Z,25.57
2019-05-18T14:23:03.086Z,25.64
2019-05-18T14:25:31.509Z,25.66
2019-05-18T14:27:59.901Z,25.64
2019-05-18T14:30:28.529Z,25.58
2019-05-18T14:32:56.928Z,25.51
2019-05-18T14:35:26.267Z,25.46
2019-05-18T14:37:54.808Z,25.40
2019-05-18T14:40:23.378Z,25.34
2019-05-18T14:42:51.787Z,25.28
2019-05-18T14:45:20.341Z,25.32
2019-05-18T14:47:48.733Z,25.35
2019-05-18T14:50:19.138Z,25.33
2019-05-18T14:52:47.578Z,25.40
2019-05-18T14:55:16.228Z,25.42
2019-05-18T14:57:44.635Z,25.47
2019-05-18T15:00:13.890Z,25.51
2019-05-18T15:02:45.048Z,25.56
2019-05-18T15:05:13.585Z,25.67
2019-05-18T15:07:42.197Z,25.72
2019-05-18T15:10:11.902Z,25.76
2019-05-18T15:12:40.308Z,25.74
2019-05-18T15:15:09.677Z,25.82
2019-05-18T15:17:38.249Z,25.92
2019-05-18T15:20:08.796Z,25.99
2019-05-18T15:22:37.301Z,25.99
2019-05-18T15:25:06.330Z,26.03
2019-05-18T15:27:34.726Z,26.06
2019-05-18T15:30:03.457Z,26.13
2019-05-18T15:32:31.842Z,26.07
2019-05-18T15:35:00.270Z,25.84
2019-05-18T15:37:28.703Z,25.66
2019-05-18T15:39:57.145Z,25.51
2019-05-18T15:42:25.502Z,25.51
2019-05-18T15:44:54.012Z,25.58
2019-05-18T15:47:22.421Z,25.64
2019-05-18T15:49:50.805Z,25.79
2019-05-18T15:52:19.225Z,25.89
2019-05-18T15:54:47.622Z,25.98
2019-05-18T15:57:16.043Z,25.99
2019-05-18T15:59:44.691Z,26.01
2019-05-18T16:02:13.116Z,26.00
2019-05-18T16:04:41.509Z,25.97
2019-05-18T16:07:10.032Z,25.90
2019-05-18T16:09:38.439Z,25.93
2019-05-18T16:12:06.942Z,25.96
2019-05-18T16:14:35.345Z,26.01
2019-05-18T16:17:03.741Z,26.04
2019-05-18T16:19:32.182Z,26.05
2019-05-18T16:22:00.759Z,26.10
2019-05-18T16:24:29.153Z,26.20
2019-05-18T16:26:57.569Z,26.25
2019-05-18T16:29:26.014Z,26.28
2019-05-18T16:31:54.385Z,26.31
2019-05-18T16:34:22.777Z,26.27
2019-05-18T16:36:51.204Z,26.25
2019-05-18T16:39:19.673Z,26.17
2019-05-18T16:41:48.069Z,26.00
2019-05-18T16:44:16.627Z,25.85
2019-05-18T16:46:45.094Z,25.86
2019-05-18T16:49:13.502Z,25.89
2019-05-18T16:51:42.157Z,25.95
2019-05-18T16:54:10.592Z,25.95
2019-05-18T16:56:38.964Z,26.03
2019-05-18T16:59:07.411Z,26.10
2019-05-18T17:01:35.876Z,26.10
2019-05-18T17:04:25.253Z,25.98
2019-05-18T17:06:53.665Z,25.93
2019-05-18T17:09:22.072Z,25.92
2019-05-18T17:11:50.489Z,25.99
2019-05-18T17:14:18.894Z,26.03
2019-05-18T17:16:47.298Z,26.07
2019-05-18T17:19:15.878Z,26.18
2019-05-18T17:21:44.286Z,26.30
2019-05-18T17:24:12.679Z,26.40
2019-05-18T17:26:52.407Z,26.47
2019-05-18T17:29:11.225Z,26.53
2019-05-18T17:31:39.626Z,26.62
2019-05-18T17:34:08.211Z,26.60
2019-05-18T17:36:36.613Z,26.41
2019-05-18T17:39:06.648Z,26.05
2019-05-18T17:41:35.220Z,25.68
2019-05-18T17:44:03.905Z,25.37
2019-05-18T17:46:32.290Z,25.10
2019-05-18T17:49:00.721Z,24.85
2019-05-18T17:51:29.113Z,24.60
2019-05-18T17:53:57.506Z,24.35
2019-05-18T17:56:26.209Z,24.21
2019-05-18T17:58:54.611Z,24.02
2019-05-18T18:01:23.005Z,23.89
2019-05-18T18:03:51.450Z,23.78
2019-05-18T18:06:19.851Z,23.64
2019-05-18T18:08:48.257Z,23.52
2019-05-18T18:11:16.691Z,23.46
2019-05-18T18:13:45.091Z,23.37
2019-05-18T18:16:13.568Z,23.25
2019-05-18T18:18:42.007Z,23.10
2019-05-18T18:21:10.427Z,22.98
2019-05-18T18:23:38.814Z,22.91
2019-05-18T18:26:07.317Z,22.87
2019-05-18T18:28:35.729Z,22.77
2019-05-18T18:31:04.195Z,22.71
2019-05-18T18:33:32.812Z,22.66
2019-05-18T18:36:01.209Z,22.60
2019-05-18T18:38:29.611Z,22.56
2019-05-18T18:40:58.047Z,22.50
2019-05-18T18:43:26.457Z,22.43
2019-05-18T18:45:54.853Z,22.34
2019-05-18T18:48:26.270Z,22.22
2019-05-18T18:50:53.418Z,22.15
2019-05-18T18:53:21.802Z,22.08
2019-05-18T18:55:50.217Z,22.02
2019-05-18T18:58:18.624Z,21.94
2019-05-18T19:00:47.015Z,21.82
2019-05-18T19:03:15.453Z,21.71
2019-05-18T19:05:43.854Z,21.62
2019-05-18T19:08:12.261Z,21.55
2019-05-18T19:10:40.686Z,21.48
2019-05-18T19:13:09.093Z,21.43
2019-05-18T19:15:37.565Z,21.35
2019-05-18T19:18:06.282Z,21.11
2019-05-18T19:20:34.692Z,20.89
2019-05-18T19:23:03.100Z,20.63
2019-05-18T19:25:31.626Z,20.46
2019-05-18T19:28:00.085Z,20.34
2019-05-18T19:30:28.478Z,20.10
2019-05-18T19:32:57.098Z,19.89
2019-05-18T19:35:25.503Z,19.84
2019-05-18T19:37:53.921Z,19.86
2019-05-18T19:40:24.084Z,19.85
2019-05-18T19:42:52.467Z,19.80
2019-05-18T19:45:20.870Z,19.73
2019-05-18T19:47:49.321Z,19.68
2019-05-18T19:50:17.802Z,19.67
2019-05-18T19:52:46.222Z,19.70
2019-05-18T19:55:14.817Z,19.70
2019-05-18T19:57:43.221Z,19.70
2019-05-18T20:00:12.335Z,19.62
2019-05-18T20:02:40.761Z,19.45
2019-05-18T20:05:09.702Z,19.32
2019-05-18T20:07:38.390Z,19.22
2019-05-18T20:10:10.616Z,19.14
2019-05-18T20:12:39.022Z,19.09
2019-05-18T20:15:09.504Z,19.03
2019-05-18T20:17:38.338Z,18.98
2019-05-18T20:20:07.877Z,18.97
2019-05-18T20:22:36.270Z,18.94
2019-05-18T20:25:05.550Z,18.85
2019-05-18T20:27:34.013Z,18.74
2019-05-18T20:30:02.412Z,18.67
2019-05-18T20:32:30.955Z,18.58
2019-05-18T20:34:59.349Z,18.51
2019-05-18T20:37:27.755Z,18.42
2019-05-18T20:39:56.295Z,18.42
2019-05-18T20:42:24.701Z,18.42
2019-05-18T20:44:53.098Z,18.39
2019-05-18T20:47:21.650Z,18.40
2019-05-18T20:49:50.049Z,18.41
2019-05-18T20:52:18.458Z,18.38
2019-05-18T20:54:46.874Z,18.28
2019-05-18T20:57:15.272Z,18.10
2019-05-18T20:59:43.668Z,18.01
2019-05-18T21:02:12.199Z,17.90
2019-05-18T21:04:40.594Z,17.80
2019-05-18T21:07:09.002Z,17.72
2019-05-18T21:09:37.614Z,17.63
2019-05-18T21:12:06.031Z,17.57
2019-05-18T21:14:34.432Z,17.56
2019-05-18T21:17:02.848Z,17.54
2019-05-18T21:19:34.165Z,17.49
2019-05-18T21:22:02.557Z,17.45
2019-05-18T21:24:30.982Z,17.45
2019-05-18T21:26:59.380Z,17.38
2019-05-18T21:29:27.840Z,17.34
2019-05-18T21:31:56.278Z,17.31
2019-05-18T21:34:24.672Z,17.24
2019-05-18T21:36:53.138Z,17.20
2019-05-18T21:39:21.576Z,17.17
2019-05-18T21:41:49.980Z,17.19
2019-05-18T21:44:18.382Z,17.17
2019-05-18T21:46:46.894Z,17.13
2019-05-18T21:49:15.288Z,17.08
2019-05-18T21:51:43.686Z,17.10
2019-05-18T21:54:12.248Z,17.13
2019-05-18T21:56:40.655Z,17.13
2019-05-18T21:59:12.215Z,16.93
2019-05-18T22:01:39.358Z,16.72
2019-05-18T22:04:07.732Z,16.64
2019-05-18T22:06:36.136Z,16.60
2019-05-18T22:09:06.407Z,16.57
2019-05-18T22:11:35.275Z,16.58
2019-05-18T22:14:04.812Z,16.61
2019-05-18T22:16:33.243Z,16.65
2019-05-18T22:19:01.638Z,16.69
2019-05-18T22:21:30.042Z,16.70
2019-05-18T22:23:58.712Z,16.66
2019-05-18T22:26:27.182Z,16.51
2019-05-18T22:28:55.579Z,16.41
2019-05-18T22:31:24.012Z,16.37
2019-05-18T22:33:52.447Z,16.40
2019-05-18T22:36:20.810Z,16.39
2019-05-18T22:38:49.392Z,16.34
2019-05-18T22:41:17.810Z,16.41
2019-05-18T22:43:46.195Z,16.46
2019-05-18T22:46:14.625Z,16.50
2019-05-18T22:48:43.024Z,16.55
2019-05-18T22:51:11.429Z,16.59
2019-05-18T22:53:39.971Z,16.61
2019-05-18T22:56:08.369Z,16.53
2019-05-18T22:58:36.768Z,16.30
2019-05-18T23:01:05.293Z,16.03
2019-05-18T23:03:33.668Z,15.97
2019-05-18T23:06:02.066Z,16.03
2019-05-18T23:08:30.498Z,16.10
2019-05-18T23:10:58.901Z,16.14
2019-05-18T23:13:27.299Z,16.12
2019-05-18T23:15:55.722Z,16.04
2019-05-18T23:18:24.129Z,15.84
2019-05-18T23:20:52.524Z,15.74
2019-05-18T23:23:21.069Z,15.65
2019-05-18T23:25:49.471Z,15.54
2019-05-18T23:28:17.864Z,15.43
2019-05-18T23:30:46.465Z,15.41
2019-05-18T23:33:14.902Z,15.41
2019-05-18T23:35:43.296Z,15.35
2019-05-18T23:38:11.740Z,15.13
2019-05-18T23:40:40.133Z,15.02
2019-05-18T23:43:08.531Z,14.95
2019-05-18T23:45:37.115Z,14.95
2019-05-18T23:48:05.587Z,14.99
2019-05-18T23:50:33.989Z,15.07
2019-05-18T23:53:02.604Z,15.14
2019-05-18T23:55:31.006Z,15.19
2019-05-18T23:58:04.976Z,15.21
